ASX067 EDXW-ENCN
Flight info
| Callsign | ASX067 |
|---|---|
| Flight time | 1h 24m |
| Altitude | 16000 |
| Route | OLDIP1A OLDIP DCT ATTUS P992 BAVTA/N0210F150 M609 RASVI |
| Aircraft | C414/L-SBDFGRY/S |
Departure
| Time | 2026-05-08 21:39 |
|---|---|
| Airport | Westerland Sylt Airport (EDXW) |
Arrival
| Time | 2026-05-08 23:04 |
|---|---|
| Airport | Kristiansand Airport (ENCN) |
| Time | Latitude | Longitude | Altitude | Speed | Heading |
|---|---|---|---|---|---|
| 2026-05-08 21:23 | 54.91278 | 8.32478 | 53 ft | 0 kts | 245° |
| 2026-05-08 21:33 | 54.91270 | 8.32470 | 53 ft | 3 kts | 175° |
| 2026-05-08 21:34 | 54.91247 | 8.32536 | 50 ft | 10 kts | 106° |
| 2026-05-08 21:34 | 54.91196 | 8.32613 | 52 ft | 9 kts | 151° |
| 2026-05-08 21:34 | 54.91151 | 8.32715 | 53 ft | 13 kts | 120° |
| 2026-05-08 21:34 | 54.91098 | 8.32832 | 53 ft | 8 kts | 132° |
| 2026-05-08 21:35 | 54.91057 | 8.32913 | 53 ft | 11 kts | 132° |
| 2026-05-08 21:35 | 54.91010 | 8.33036 | 53 ft | 14 kts | 113° |
| 2026-05-08 21:35 | 54.91060 | 8.33175 | 52 ft | 17 kts | 21° |
| 2026-05-08 21:35 | 54.91176 | 8.33181 | 53 ft | 17 kts | 359° |
| 2026-05-08 21:36 | 54.91288 | 8.33199 | 53 ft | 15 kts | 29° |
| 2026-05-08 21:36 | 54.91385 | 8.33248 | 50 ft | 15 kts | 356° |
| 2026-05-08 21:36 | 54.91484 | 8.33182 | 53 ft | 15 kts | 353° |
| 2026-05-08 21:36 | 54.91592 | 8.33178 | 53 ft | 16 kts | 360° |
| 2026-05-08 21:37 | 54.91703 | 8.33178 | 53 ft | 16 kts | 359° |
| 2026-05-08 21:37 | 54.91762 | 8.33212 | 53 ft | 8 kts | 95° |
| 2026-05-08 21:37 | 54.91742 | 8.33304 | 53 ft | 10 kts | 112° |
| 2026-05-08 21:37 | 54.91710 | 8.33435 | 53 ft | 14 kts | 113° |
| 2026-05-08 21:38 | 54.91678 | 8.33569 | 51 ft | 11 kts | 113° |
| 2026-05-08 21:38 | 54.91657 | 8.33635 | 53 ft | 0 kts | 144° |
| 2026-05-08 21:39 | 54.91534 | 8.33787 | 53 ft | 49 kts | 144° |
| 2026-05-08 21:39 | 54.91114 | 8.34308 | 119 ft | 89 kts | 144° |
| 2026-05-08 21:39 | 54.90790 | 8.34722 | 422 ft | 80 kts | 140° |
| 2026-05-08 21:39 | 54.90446 | 8.35164 | 685 ft | 86 kts | 141° |
| 2026-05-08 21:40 | 54.89896 | 8.35756 | 971 ft | 97 kts | 144° |
| 2026-05-08 21:40 | 54.89321 | 8.36361 | 1310 ft | 98 kts | 137° |
| 2026-05-08 21:40 | 54.88794 | 8.37109 | 1679 ft | 98 kts | 138° |
| 2026-05-08 21:41 | 54.87679 | 8.38544 | 2429 ft | 101 kts | 141° |
| 2026-05-08 21:41 | 54.87105 | 8.39262 | 2827 ft | 100 kts | 143° |
| 2026-05-08 21:41 | 54.86537 | 8.39966 | 3198 ft | 100 kts | 143° |
| 2026-05-08 21:41 | 54.85965 | 8.40670 | 3551 ft | 101 kts | 143° |
| 2026-05-08 21:42 | 54.85579 | 8.41143 | 3767 ft | 104 kts | 142° |
| 2026-05-08 21:42 | 54.84987 | 8.41886 | 4105 ft | 106 kts | 143° |
| 2026-05-08 21:42 | 54.84382 | 8.42638 | 4450 ft | 108 kts | 143° |
| 2026-05-08 21:42 | 54.83768 | 8.43397 | 4796 ft | 110 kts | 143° |
| 2026-05-08 21:43 | 54.82929 | 8.44428 | 5254 ft | 112 kts | 143° |
| 2026-05-08 21:43 | 54.82498 | 8.44960 | 5497 ft | 112 kts | 142° |
| 2026-05-08 21:43 | 54.81868 | 8.45735 | 5852 ft | 112 kts | 141° |
| 2026-05-08 21:43 | 54.81231 | 8.46521 | 6212 ft | 112 kts | 141° |
| 2026-05-08 21:44 | 54.80595 | 8.47304 | 6583 ft | 112 kts | 141° |
| 2026-05-08 21:44 | 54.79958 | 8.48086 | 6921 ft | 113 kts | 141° |
| 2026-05-08 21:44 | 54.79316 | 8.48879 | 7247 ft | 114 kts | 141° |
| 2026-05-08 21:44 | 54.78666 | 8.49678 | 7586 ft | 115 kts | 142° |
| 2026-05-08 21:45 | 54.78011 | 8.50477 | 7933 ft | 116 kts | 143° |
| 2026-05-08 21:45 | 54.77352 | 8.51288 | 8270 ft | 117 kts | 142° |
| 2026-05-08 21:45 | 54.76686 | 8.52106 | 8609 ft | 118 kts | 143° |
| 2026-05-08 21:45 | 54.76015 | 8.52933 | 8954 ft | 119 kts | 143° |
| 2026-05-08 21:46 | 54.75341 | 8.53766 | 9305 ft | 119 kts | 144° |
| 2026-05-08 21:46 | 54.74659 | 8.54603 | 9646 ft | 121 kts | 144° |
| 2026-05-08 21:46 | 54.73980 | 8.55432 | 9998 ft | 122 kts | 145° |
| 2026-05-08 21:46 | 54.73287 | 8.56282 | 10326 ft | 123 kts | 145° |
| 2026-05-08 21:47 | 54.72587 | 8.57140 | 10636 ft | 124 kts | 145° |
| 2026-05-08 21:47 | 54.71880 | 8.58008 | 10950 ft | 125 kts | 145° |
| 2026-05-08 21:47 | 54.71168 | 8.58880 | 11275 ft | 126 kts | 145° |
| 2026-05-08 21:47 | 54.70449 | 8.59760 | 11593 ft | 127 kts | 145° |
| 2026-05-08 21:48 | 54.69723 | 8.60646 | 11916 ft | 128 kts | 146° |
| 2026-05-08 21:48 | 54.68990 | 8.61543 | 12243 ft | 129 kts | 146° |
| 2026-05-08 21:48 | 54.68252 | 8.62446 | 12567 ft | 130 kts | 146° |
| 2026-05-08 21:48 | 54.67516 | 8.63343 | 12892 ft | 132 kts | 146° |
| 2026-05-08 21:49 | 54.66764 | 8.64262 | 13221 ft | 133 kts | 146° |
| 2026-05-08 21:49 | 54.66005 | 8.65190 | 13552 ft | 134 kts | 146° |
| 2026-05-08 21:49 | 54.65238 | 8.66127 | 13887 ft | 135 kts | 146° |
| 2026-05-08 21:49 | 54.64465 | 8.67068 | 14201 ft | 136 kts | 146° |
| 2026-05-08 21:50 | 54.63687 | 8.68018 | 14497 ft | 138 kts | 146° |
| 2026-05-08 21:50 | 54.62898 | 8.68977 | 14790 ft | 139 kts | 147° |
| 2026-05-08 21:50 | 54.62104 | 8.69953 | 15091 ft | 141 kts | 142° |
| 2026-05-08 21:50 | 54.61540 | 8.71321 | 15380 ft | 143 kts | 107° |
| 2026-05-08 21:51 | 54.61240 | 8.72963 | 15674 ft | 145 kts | 110° |
| 2026-05-08 21:51 | 54.60868 | 8.74559 | 15958 ft | 146 kts | 112° |
| 2026-05-08 21:51 | 54.60482 | 8.76191 | 16178 ft | 147 kts | 111° |
| 2026-05-08 21:51 | 54.59889 | 8.77673 | 16220 ft | 158 kts | 149° |
| 2026-05-08 21:52 | 54.58821 | 8.78030 | 16234 ft | 163 kts | 197° |
| 2026-05-08 21:52 | 54.57918 | 8.76916 | 16238 ft | 165 kts | 242° |
| 2026-05-08 21:52 | 54.57757 | 8.74986 | 16237 ft | 169 kts | 286° |
| 2026-05-08 21:52 | 54.58456 | 8.73368 | 16237 ft | 175 kts | 323° |
| 2026-05-08 21:53 | 54.59535 | 8.72327 | 16235 ft | 179 kts | 330° |
| 2026-05-08 21:53 | 54.60634 | 8.71323 | 16235 ft | 182 kts | 330° |
| 2026-05-08 21:53 | 54.61840 | 8.70617 | 16235 ft | 186 kts | 349° |
| 2026-05-08 21:53 | 54.63136 | 8.70827 | 16238 ft | 191 kts | 14° |
| 2026-05-08 21:54 | 54.64429 | 8.71353 | 16237 ft | 190 kts | 6° |
| 2026-05-08 21:54 | 54.65746 | 8.71646 | 16239 ft | 191 kts | 5° |
| 2026-05-08 21:54 | 54.67068 | 8.71938 | 16240 ft | 192 kts | 5° |
| 2026-05-08 21:54 | 54.68391 | 8.72264 | 16240 ft | 192 kts | 5° |
| 2026-05-08 21:55 | 54.69719 | 8.72614 | 16240 ft | 193 kts | 6° |
| 2026-05-08 21:55 | 54.71045 | 8.72975 | 16239 ft | 193 kts | 6° |
| 2026-05-08 21:55 | 54.72376 | 8.73344 | 16241 ft | 193 kts | 6° |
| 2026-05-08 21:56 | 54.75021 | 8.74081 | 16240 ft | 194 kts | 7° |
| 2026-05-08 21:56 | 54.76354 | 8.74454 | 16240 ft | 194 kts | 6° |
| 2026-05-08 21:56 | 54.77684 | 8.74827 | 16241 ft | 194 kts | 6° |
| 2026-05-08 21:56 | 54.79020 | 8.75201 | 16242 ft | 194 kts | 6° |
| 2026-05-08 21:57 | 54.80354 | 8.75573 | 16241 ft | 194 kts | 6° |
| 2026-05-08 21:57 | 54.81689 | 8.75949 | 16241 ft | 194 kts | 7° |
| 2026-05-08 21:57 | 54.83024 | 8.76323 | 16242 ft | 194 kts | 7° |
| 2026-05-08 21:57 | 54.84360 | 8.76698 | 16242 ft | 194 kts | 7° |
| 2026-05-08 21:58 | 54.85679 | 8.77069 | 16242 ft | 194 kts | 7° |
| 2026-05-08 21:58 | 54.87013 | 8.77445 | 16241 ft | 195 kts | 7° |
| 2026-05-08 21:58 | 54.88350 | 8.77821 | 16243 ft | 195 kts | 7° |
| 2026-05-08 21:58 | 54.89690 | 8.78097 | 16241 ft | 193 kts | 356° |
| 2026-05-08 21:59 | 54.90982 | 8.77593 | 16242 ft | 190 kts | 335° |
| 2026-05-08 21:59 | 54.92205 | 8.76715 | 16243 ft | 190 kts | 337° |
| 2026-05-08 21:59 | 54.93444 | 8.75899 | 16242 ft | 191 kts | 338° |
| 2026-05-08 21:59 | 54.94693 | 8.75079 | 16243 ft | 191 kts | 338° |
| 2026-05-08 22:00 | 54.95937 | 8.74250 | 16243 ft | 191 kts | 337° |
| 2026-05-08 22:00 | 54.97164 | 8.73426 | 16241 ft | 191 kts | 337° |
| 2026-05-08 22:00 | 54.98420 | 8.72579 | 16242 ft | 191 kts | 337° |
| 2026-05-08 22:00 | 54.99652 | 8.71746 | 16244 ft | 191 kts | 337° |
| 2026-05-08 22:01 | 55.00893 | 8.70906 | 16240 ft | 191 kts | 337° |
| 2026-05-08 22:01 | 55.02135 | 8.70065 | 16244 ft | 192 kts | 337° |
| 2026-05-08 22:01 | 55.03380 | 8.69222 | 16243 ft | 192 kts | 337° |
| 2026-05-08 22:01 | 55.04625 | 8.68377 | 16243 ft | 192 kts | 337° |
| 2026-05-08 22:02 | 55.05870 | 8.67533 | 16241 ft | 192 kts | 337° |
| 2026-05-08 22:02 | 55.07120 | 8.66685 | 16245 ft | 192 kts | 337° |
| 2026-05-08 22:02 | 55.08369 | 8.65837 | 16245 ft | 192 kts | 337° |
| 2026-05-08 22:02 | 55.09616 | 8.64988 | 16246 ft | 192 kts | 337° |
| 2026-05-08 22:03 | 55.10849 | 8.64148 | 16245 ft | 192 kts | 336° |
| 2026-05-08 22:03 | 55.12095 | 8.63299 | 16244 ft | 192 kts | 337° |
| 2026-05-08 22:03 | 55.13341 | 8.62450 | 16245 ft | 192 kts | 337° |
| 2026-05-08 22:03 | 55.14585 | 8.61602 | 16249 ft | 192 kts | 336° |
| 2026-05-08 22:04 | 55.15831 | 8.60751 | 16250 ft | 192 kts | 336° |
| 2026-05-08 22:04 | 55.17076 | 8.59901 | 16251 ft | 192 kts | 336° |
| 2026-05-08 22:04 | 55.18319 | 8.59051 | 16256 ft | 192 kts | 337° |
| 2026-05-08 22:04 | 55.19567 | 8.58197 | 16252 ft | 192 kts | 337° |
| 2026-05-08 22:05 | 55.20815 | 8.57343 | 16259 ft | 192 kts | 337° |
| 2026-05-08 22:05 | 55.22065 | 8.56488 | 16261 ft | 193 kts | 337° |
| 2026-05-08 22:05 | 55.23312 | 8.55632 | 16261 ft | 193 kts | 337° |
| 2026-05-08 22:05 | 55.24561 | 8.54775 | 16263 ft | 193 kts | 337° |
| 2026-05-08 22:06 | 55.25810 | 8.53918 | 16264 ft | 193 kts | 337° |
| 2026-05-08 22:06 | 55.27044 | 8.53071 | 16266 ft | 193 kts | 337° |
| 2026-05-08 22:06 | 55.28293 | 8.52213 | 16260 ft | 193 kts | 337° |
| 2026-05-08 22:06 | 55.29544 | 8.51353 | 16263 ft | 193 kts | 337° |
| 2026-05-08 22:07 | 55.30794 | 8.50493 | 16264 ft | 193 kts | 336° |
| 2026-05-08 22:07 | 55.32045 | 8.49631 | 16261 ft | 193 kts | 337° |
| 2026-05-08 22:07 | 55.33293 | 8.48771 | 16266 ft | 193 kts | 337° |
| 2026-05-08 22:07 | 55.34546 | 8.47906 | 16264 ft | 193 kts | 336° |
| 2026-05-08 22:08 | 55.35798 | 8.47042 | 16266 ft | 193 kts | 337° |
| 2026-05-08 22:08 | 55.37050 | 8.46178 | 16267 ft | 193 kts | 337° |
| 2026-05-08 22:08 | 55.38301 | 8.45313 | 16263 ft | 193 kts | 337° |
| 2026-05-08 22:08 | 55.39553 | 8.44447 | 16263 ft | 193 kts | 336° |
| 2026-05-08 22:09 | 55.40807 | 8.43580 | 16264 ft | 193 kts | 336° |
| 2026-05-08 22:09 | 55.42063 | 8.42711 | 16267 ft | 194 kts | 337° |
| 2026-05-08 22:09 | 55.43316 | 8.41842 | 16266 ft | 194 kts | 337° |
| 2026-05-08 22:09 | 55.44570 | 8.40972 | 16261 ft | 194 kts | 336° |
| 2026-05-08 22:10 | 55.45824 | 8.40101 | 16265 ft | 194 kts | 337° |
| 2026-05-08 22:10 | 55.47078 | 8.39230 | 16263 ft | 194 kts | 337° |
| 2026-05-08 22:10 | 55.48318 | 8.38367 | 16264 ft | 194 kts | 337° |
| 2026-05-08 22:10 | 55.49574 | 8.37493 | 16271 ft | 194 kts | 336° |
| 2026-05-08 22:11 | 55.50844 | 8.36608 | 16171 ft | 199 kts | 336° |
| 2026-05-08 22:11 | 55.52143 | 8.35701 | 16069 ft | 202 kts | 336° |
| 2026-05-08 22:11 | 55.53456 | 8.34780 | 15968 ft | 204 kts | 336° |
| 2026-05-08 22:11 | 55.54774 | 8.33859 | 15868 ft | 206 kts | 336° |
| 2026-05-08 22:12 | 55.56108 | 8.32928 | 15766 ft | 207 kts | 336° |
| 2026-05-08 22:12 | 55.57448 | 8.31993 | 15666 ft | 207 kts | 336° |
| 2026-05-08 22:12 | 55.58794 | 8.31054 | 15567 ft | 208 kts | 337° |
| 2026-05-08 22:12 | 55.60157 | 8.30199 | 15466 ft | 209 kts | 343° |
| 2026-05-08 22:13 | 55.61599 | 8.29846 | 15367 ft | 210 kts | 356° |
| 2026-05-08 22:13 | 55.63055 | 8.29711 | 15300 ft | 208 kts | 354° |
| 2026-05-08 22:13 | 55.64478 | 8.29529 | 15339 ft | 203 kts | 354° |
| 2026-05-08 22:13 | 55.65887 | 8.29336 | 15288 ft | 203 kts | 354° |
| 2026-05-08 22:14 | 55.67266 | 8.29149 | 15332 ft | 199 kts | 354° |
| 2026-05-08 22:14 | 55.68647 | 8.28966 | 15350 ft | 198 kts | 354° |
| 2026-05-08 22:14 | 55.70019 | 8.28786 | 15361 ft | 197 kts | 354° |
| 2026-05-08 22:14 | 55.71386 | 8.28609 | 15363 ft | 197 kts | 354° |
| 2026-05-08 22:15 | 55.72751 | 8.28433 | 15370 ft | 197 kts | 354° |
| 2026-05-08 22:15 | 55.74119 | 8.28260 | 15367 ft | 197 kts | 354° |
| 2026-05-08 22:15 | 55.75488 | 8.28088 | 15371 ft | 197 kts | 354° |
| 2026-05-08 22:15 | 55.76856 | 8.27914 | 15373 ft | 197 kts | 354° |
| 2026-05-08 22:16 | 55.78224 | 8.27740 | 15374 ft | 197 kts | 354° |
| 2026-05-08 22:16 | 55.79593 | 8.27566 | 15370 ft | 197 kts | 354° |
| 2026-05-08 22:16 | 55.80962 | 8.27392 | 15373 ft | 197 kts | 354° |
| 2026-05-08 22:16 | 55.82332 | 8.27219 | 15374 ft | 197 kts | 354° |
| 2026-05-08 22:17 | 55.83689 | 8.27046 | 15371 ft | 198 kts | 354° |
| 2026-05-08 22:17 | 55.85059 | 8.26873 | 15373 ft | 198 kts | 354° |
| 2026-05-08 22:17 | 55.86432 | 8.26698 | 15377 ft | 198 kts | 354° |
| 2026-05-08 22:17 | 55.87803 | 8.26523 | 15378 ft | 198 kts | 354° |
| 2026-05-08 22:18 | 55.89179 | 8.26348 | 15377 ft | 198 kts | 354° |
| 2026-05-08 22:18 | 55.90553 | 8.26172 | 15375 ft | 198 kts | 354° |
| 2026-05-08 22:18 | 55.91926 | 8.25995 | 15378 ft | 198 kts | 354° |
| 2026-05-08 22:18 | 55.93301 | 8.25819 | 15376 ft | 198 kts | 354° |
| 2026-05-08 22:19 | 55.94658 | 8.25644 | 15376 ft | 198 kts | 354° |
| 2026-05-08 22:19 | 55.96034 | 8.25468 | 15375 ft | 198 kts | 354° |
| 2026-05-08 22:19 | 55.97411 | 8.25291 | 15379 ft | 198 kts | 354° |
| 2026-05-08 22:19 | 55.98788 | 8.25114 | 15376 ft | 198 kts | 354° |
| 2026-05-08 22:20 | 56.00161 | 8.24938 | 15377 ft | 198 kts | 354° |
| 2026-05-08 22:20 | 56.01538 | 8.24761 | 15377 ft | 198 kts | 354° |
| 2026-05-08 22:20 | 56.02914 | 8.24584 | 15377 ft | 198 kts | 354° |
| 2026-05-08 22:20 | 56.04291 | 8.24407 | 15377 ft | 198 kts | 354° |
| 2026-05-08 22:21 | 56.05669 | 8.24229 | 15378 ft | 198 kts | 354° |
| 2026-05-08 22:21 | 56.07050 | 8.24051 | 15379 ft | 198 kts | 354° |
| 2026-05-08 22:21 | 56.08427 | 8.23874 | 15377 ft | 199 kts | 354° |
| 2026-05-08 22:21 | 56.09808 | 8.23695 | 15378 ft | 199 kts | 354° |
| 2026-05-08 22:22 | 56.11175 | 8.23518 | 15373 ft | 199 kts | 354° |
| 2026-05-08 22:22 | 56.12553 | 8.23340 | 15376 ft | 199 kts | 354° |
| 2026-05-08 22:22 | 56.13936 | 8.23162 | 15377 ft | 199 kts | 354° |
| 2026-05-08 22:22 | 56.15320 | 8.22985 | 15375 ft | 199 kts | 354° |
| 2026-05-08 22:23 | 56.16702 | 8.22806 | 15377 ft | 199 kts | 354° |
| 2026-05-08 22:23 | 56.18083 | 8.22627 | 15375 ft | 199 kts | 354° |
| 2026-05-08 22:23 | 56.19465 | 8.22449 | 15378 ft | 199 kts | 354° |
| 2026-05-08 22:23 | 56.20847 | 8.22269 | 15377 ft | 199 kts | 354° |
| 2026-05-08 22:24 | 56.22228 | 8.22090 | 15377 ft | 199 kts | 354° |
| 2026-05-08 22:24 | 56.23611 | 8.21911 | 15376 ft | 199 kts | 354° |
| 2026-05-08 22:24 | 56.24977 | 8.21734 | 15377 ft | 199 kts | 354° |
| 2026-05-08 22:24 | 56.26358 | 8.21555 | 15377 ft | 199 kts | 354° |
| 2026-05-08 22:25 | 56.27740 | 8.21375 | 15377 ft | 199 kts | 354° |
| 2026-05-08 22:25 | 56.29121 | 8.21195 | 15376 ft | 199 kts | 354° |
| 2026-05-08 22:25 | 56.30504 | 8.21016 | 15377 ft | 199 kts | 354° |
| 2026-05-08 22:25 | 56.31888 | 8.20836 | 15376 ft | 199 kts | 355° |
| 2026-05-08 22:26 | 56.33270 | 8.20656 | 15376 ft | 199 kts | 354° |
| 2026-05-08 22:26 | 56.34652 | 8.20475 | 15375 ft | 199 kts | 354° |
| 2026-05-08 22:26 | 56.36036 | 8.20294 | 15377 ft | 199 kts | 354° |
| 2026-05-08 22:26 | 56.37420 | 8.20113 | 15377 ft | 199 kts | 354° |
| 2026-05-08 22:27 | 56.38804 | 8.19933 | 15377 ft | 199 kts | 354° |
| 2026-05-08 22:27 | 56.40190 | 8.19752 | 15376 ft | 199 kts | 354° |
| 2026-05-08 22:27 | 56.41574 | 8.19570 | 15379 ft | 199 kts | 354° |
| 2026-05-08 22:27 | 56.42956 | 8.19389 | 15375 ft | 199 kts | 354° |
| 2026-05-08 22:28 | 56.44340 | 8.19208 | 15376 ft | 199 kts | 355° |
| 2026-05-08 22:28 | 56.45709 | 8.19028 | 15377 ft | 200 kts | 354° |
| 2026-05-08 22:28 | 56.47096 | 8.18846 | 15375 ft | 200 kts | 354° |
| 2026-05-08 22:28 | 56.48483 | 8.18663 | 15374 ft | 200 kts | 354° |
| 2026-05-08 22:29 | 56.49865 | 8.18448 | 15374 ft | 200 kts | 353° |
| 2026-05-08 22:29 | 56.51247 | 8.18212 | 15372 ft | 200 kts | 353° |
| 2026-05-08 22:29 | 56.52632 | 8.17971 | 15378 ft | 200 kts | 353° |
| 2026-05-08 22:29 | 56.54013 | 8.17733 | 15377 ft | 200 kts | 353° |
| 2026-05-08 22:30 | 56.55397 | 8.17496 | 15378 ft | 200 kts | 353° |
| 2026-05-08 22:30 | 56.56782 | 8.17261 | 15375 ft | 200 kts | 353° |
| 2026-05-08 22:30 | 56.58166 | 8.17026 | 15375 ft | 200 kts | 353° |
| 2026-05-08 22:30 | 56.59552 | 8.16793 | 15376 ft | 200 kts | 353° |
| 2026-05-08 22:31 | 56.60936 | 8.16561 | 15378 ft | 200 kts | 353° |
| 2026-05-08 22:31 | 56.62320 | 8.16328 | 15376 ft | 200 kts | 353° |
| 2026-05-08 22:31 | 56.63239 | 8.16175 | 15375 ft | 200 kts | 353° |
| 2026-05-08 22:31 | 56.64625 | 8.15943 | 15375 ft | 200 kts | 353° |
| 2026-05-08 22:32 | 56.66464 | 8.15634 | 15374 ft | 200 kts | 353° |
| 2026-05-08 22:32 | 56.67399 | 8.15476 | 15371 ft | 200 kts | 353° |
| 2026-05-08 22:32 | 56.69236 | 8.15166 | 15377 ft | 200 kts | 353° |
| 2026-05-08 22:32 | 56.70622 | 8.14934 | 15377 ft | 200 kts | 353° |
| 2026-05-08 22:33 | 56.71559 | 8.14777 | 15377 ft | 200 kts | 353° |
| 2026-05-08 22:33 | 56.72944 | 8.14544 | 15378 ft | 200 kts | 353° |
| 2026-05-08 22:33 | 56.74311 | 8.14313 | 15378 ft | 200 kts | 353° |
| 2026-05-08 22:33 | 56.75698 | 8.14078 | 15377 ft | 200 kts | 353° |
| 2026-05-08 22:34 | 56.77084 | 8.13843 | 15377 ft | 200 kts | 353° |
| 2026-05-08 22:34 | 56.78472 | 8.13608 | 15370 ft | 200 kts | 353° |
| 2026-05-08 22:34 | 56.79858 | 8.13373 | 15380 ft | 200 kts | 353° |
| 2026-05-08 22:34 | 56.81247 | 8.13137 | 15374 ft | 200 kts | 353° |
| 2026-05-08 22:35 | 56.82639 | 8.12902 | 15378 ft | 200 kts | 353° |
| 2026-05-08 22:35 | 56.84027 | 8.12666 | 15373 ft | 200 kts | 353° |
| 2026-05-08 22:35 | 56.85415 | 8.12431 | 15378 ft | 200 kts | 353° |
| 2026-05-08 22:35 | 56.86806 | 8.12194 | 15376 ft | 200 kts | 353° |
| 2026-05-08 22:36 | 56.88195 | 8.11958 | 15377 ft | 200 kts | 353° |
| 2026-05-08 22:36 | 56.89566 | 8.11725 | 15374 ft | 200 kts | 353° |
| 2026-05-08 22:36 | 56.90973 | 8.11485 | 15375 ft | 201 kts | 353° |
| 2026-05-08 22:36 | 56.92344 | 8.11252 | 15376 ft | 201 kts | 353° |
| 2026-05-08 22:37 | 56.93734 | 8.11015 | 15375 ft | 201 kts | 353° |
| 2026-05-08 22:37 | 56.95127 | 8.10776 | 15377 ft | 201 kts | 353° |
| 2026-05-08 22:37 | 56.96518 | 8.10540 | 15379 ft | 201 kts | 353° |
| 2026-05-08 22:37 | 56.97909 | 8.10301 | 15378 ft | 201 kts | 353° |
| 2026-05-08 22:38 | 56.99304 | 8.10063 | 15376 ft | 201 kts | 353° |
| 2026-05-08 22:38 | 57.00695 | 8.09825 | 15376 ft | 201 kts | 353° |
| 2026-05-08 22:38 | 57.02089 | 8.09586 | 15370 ft | 201 kts | 353° |
| 2026-05-08 22:38 | 57.03483 | 8.09347 | 15376 ft | 201 kts | 353° |
| 2026-05-08 22:39 | 57.04874 | 8.09109 | 15372 ft | 201 kts | 353° |
| 2026-05-08 22:39 | 57.06268 | 8.08870 | 15374 ft | 201 kts | 353° |
| 2026-05-08 22:39 | 57.07664 | 8.08630 | 15373 ft | 201 kts | 353° |
| 2026-05-08 22:39 | 57.09056 | 8.08390 | 15375 ft | 201 kts | 353° |
| 2026-05-08 22:40 | 57.10450 | 8.08151 | 15376 ft | 201 kts | 353° |
| 2026-05-08 22:40 | 57.11844 | 8.07910 | 15376 ft | 201 kts | 353° |
| 2026-05-08 22:40 | 57.13240 | 8.07670 | 15374 ft | 201 kts | 353° |
| 2026-05-08 22:40 | 57.14634 | 8.07429 | 15376 ft | 201 kts | 353° |
| 2026-05-08 22:41 | 57.16013 | 8.07191 | 15368 ft | 201 kts | 353° |
| 2026-05-08 22:41 | 57.17407 | 8.06950 | 15373 ft | 201 kts | 353° |
| 2026-05-08 22:41 | 57.18804 | 8.06709 | 15377 ft | 201 kts | 353° |
| 2026-05-08 22:41 | 57.20197 | 8.06468 | 15373 ft | 201 kts | 353° |
| 2026-05-08 22:42 | 57.21594 | 8.06226 | 15375 ft | 201 kts | 353° |
| 2026-05-08 22:42 | 57.22990 | 8.05984 | 15372 ft | 201 kts | 353° |
| 2026-05-08 22:42 | 57.24384 | 8.05743 | 15375 ft | 201 kts | 353° |
| 2026-05-08 22:42 | 57.25783 | 8.05500 | 15374 ft | 202 kts | 353° |
| 2026-05-08 22:43 | 57.27184 | 8.05256 | 15369 ft | 202 kts | 353° |
| 2026-05-08 22:43 | 57.28584 | 8.05063 | 15375 ft | 202 kts | 358° |
| 2026-05-08 22:43 | 57.29981 | 8.05322 | 15375 ft | 202 kts | 11° |
| 2026-05-08 22:43 | 57.31359 | 8.05862 | 15374 ft | 202 kts | 10° |
| 2026-05-08 22:44 | 57.32743 | 8.06357 | 15375 ft | 203 kts | 10° |
| 2026-05-08 22:44 | 57.34127 | 8.06851 | 15373 ft | 203 kts | 10° |
| 2026-05-08 22:44 | 57.35512 | 8.07351 | 15374 ft | 203 kts | 10° |
| 2026-05-08 22:44 | 57.36879 | 8.07848 | 15374 ft | 203 kts | 10° |
| 2026-05-08 22:45 | 57.38262 | 8.08354 | 15375 ft | 203 kts | 10° |
| 2026-05-08 22:45 | 57.39649 | 8.08863 | 15375 ft | 203 kts | 10° |
| 2026-05-08 22:45 | 57.41034 | 8.09374 | 15375 ft | 203 kts | 10° |
| 2026-05-08 22:45 | 57.42419 | 8.09883 | 15372 ft | 203 kts | 10° |
| 2026-05-08 22:46 | 57.43803 | 8.10392 | 15372 ft | 203 kts | 10° |
| 2026-05-08 22:46 | 57.45191 | 8.10902 | 15373 ft | 203 kts | 10° |
| 2026-05-08 22:46 | 57.46577 | 8.11414 | 15375 ft | 203 kts | 10° |
| 2026-05-08 22:46 | 57.47959 | 8.11923 | 15374 ft | 199 kts | 10° |
| 2026-05-08 22:47 | 57.49319 | 8.12425 | 15111 ft | 201 kts | 10° |
| 2026-05-08 22:47 | 57.50695 | 8.12934 | 14818 ft | 201 kts | 11° |
| 2026-05-08 22:47 | 57.52069 | 8.13440 | 14522 ft | 202 kts | 11° |
| 2026-05-08 22:47 | 57.53449 | 8.13950 | 14232 ft | 202 kts | 11° |
| 2026-05-08 22:48 | 57.54811 | 8.14454 | 13932 ft | 202 kts | 11° |
| 2026-05-08 22:48 | 57.56188 | 8.14966 | 13600 ft | 201 kts | 11° |
| 2026-05-08 22:48 | 57.57560 | 8.15475 | 13272 ft | 201 kts | 11° |
| 2026-05-08 22:48 | 57.58931 | 8.15984 | 12964 ft | 200 kts | 11° |
| 2026-05-08 22:49 | 57.60306 | 8.16401 | 12645 ft | 200 kts | 5° |
| 2026-05-08 22:49 | 57.63075 | 8.16466 | 12026 ft | 198 kts | 360° |
| 2026-05-08 22:49 | 57.64456 | 8.16485 | 11717 ft | 198 kts | 360° |
| 2026-05-08 22:50 | 57.65835 | 8.16504 | 11410 ft | 198 kts | 360° |
| 2026-05-08 22:50 | 57.67211 | 8.16521 | 11101 ft | 197 kts | 360° |
| 2026-05-08 22:50 | 57.68584 | 8.16536 | 10813 ft | 197 kts | 360° |
| 2026-05-08 22:50 | 57.69954 | 8.16549 | 10517 ft | 196 kts | 360° |
| 2026-05-08 22:51 | 57.71320 | 8.16563 | 10224 ft | 196 kts | 360° |
| 2026-05-08 22:51 | 57.72681 | 8.16575 | 9906 ft | 196 kts | 360° |
| 2026-05-08 22:51 | 57.74044 | 8.16589 | 9580 ft | 196 kts | 359° |
| 2026-05-08 22:51 | 57.75405 | 8.16601 | 9260 ft | 196 kts | 359° |
| 2026-05-08 22:52 | 57.76749 | 8.16614 | 8945 ft | 195 kts | 359° |
| 2026-05-08 22:52 | 57.78109 | 8.16626 | 8630 ft | 195 kts | 359° |
| 2026-05-08 22:52 | 57.79468 | 8.16637 | 8321 ft | 195 kts | 359° |
| 2026-05-08 22:52 | 57.80827 | 8.16650 | 8012 ft | 195 kts | 359° |
| 2026-05-08 22:53 | 57.82189 | 8.16662 | 7706 ft | 195 kts | 359° |
| 2026-05-08 22:53 | 57.83546 | 8.16674 | 7401 ft | 195 kts | 358° |
| 2026-05-08 22:53 | 57.84907 | 8.16687 | 7102 ft | 196 kts | 358° |
| 2026-05-08 22:53 | 57.86284 | 8.16698 | 6807 ft | 198 kts | 358° |
| 2026-05-08 22:54 | 57.87670 | 8.16711 | 6497 ft | 199 kts | 358° |
| 2026-05-08 22:54 | 57.89036 | 8.16724 | 6184 ft | 199 kts | 358° |
| 2026-05-08 22:54 | 57.90418 | 8.16733 | 5873 ft | 198 kts | 357° |
| 2026-05-08 22:54 | 57.91729 | 8.16196 | 5560 ft | 192 kts | 328° |
| 2026-05-08 22:55 | 57.92694 | 8.14575 | 5254 ft | 183 kts | 300° |
| 2026-05-08 22:55 | 57.93414 | 8.12613 | 4998 ft | 180 kts | 300° |
| 2026-05-08 22:55 | 57.94132 | 8.10730 | 4837 ft | 174 kts | 301° |
| 2026-05-08 22:55 | 57.94827 | 8.08896 | 4678 ft | 170 kts | 301° |
| 2026-05-08 22:56 | 57.95507 | 8.07087 | 4520 ft | 168 kts | 301° |
| 2026-05-08 22:56 | 57.96176 | 8.05300 | 4364 ft | 167 kts | 301° |
| 2026-05-08 22:56 | 57.96842 | 8.03517 | 4213 ft | 166 kts | 301° |
| 2026-05-08 22:56 | 57.97504 | 8.01743 | 4057 ft | 165 kts | 301° |
| 2026-05-08 22:57 | 57.98167 | 7.99967 | 3901 ft | 165 kts | 301° |
| 2026-05-08 22:57 | 57.98827 | 7.98198 | 3751 ft | 165 kts | 301° |
| 2026-05-08 22:57 | 57.99486 | 7.96430 | 3628 ft | 163 kts | 301° |
| 2026-05-08 22:57 | 58.00127 | 7.94712 | 3554 ft | 162 kts | 302° |
| 2026-05-08 22:58 | 58.00777 | 7.92969 | 3479 ft | 162 kts | 302° |
| 2026-05-08 22:58 | 58.01427 | 7.91223 | 3400 ft | 162 kts | 302° |
| 2026-05-08 22:58 | 58.02094 | 7.89505 | 3326 ft | 163 kts | 309° |
| 2026-05-08 22:58 | 58.03025 | 7.88280 | 3246 ft | 166 kts | 338° |
| 2026-05-08 22:59 | 58.04156 | 7.87945 | 3167 ft | 166 kts | 4° |
| 2026-05-08 22:59 | 58.05223 | 7.88621 | 3091 ft | 162 kts | 32° |
| 2026-05-08 22:59 | 58.06190 | 7.89709 | 3043 ft | 161 kts | 36° |
| 2026-05-08 22:59 | 58.07111 | 7.90882 | 3021 ft | 159 kts | 38° |
| 2026-05-08 23:00 | 58.08015 | 7.92111 | 3035 ft | 161 kts | 39° |
| 2026-05-08 23:00 | 58.08924 | 7.93357 | 3011 ft | 161 kts | 39° |
| 2026-05-08 23:00 | 58.09838 | 7.94591 | 2951 ft | 162 kts | 38° |
| 2026-05-08 23:00 | 58.10753 | 7.95777 | 2698 ft | 158 kts | 37° |
| 2026-05-08 23:01 | 58.11652 | 7.96943 | 2380 ft | 155 kts | 38° |
| 2026-05-08 23:01 | 58.12519 | 7.98088 | 2167 ft | 147 kts | 38° |
| 2026-05-08 23:01 | 58.13332 | 7.99168 | 1991 ft | 140 kts | 38° |
| 2026-05-08 23:01 | 58.14112 | 8.00203 | 1740 ft | 133 kts | 38° |
| 2026-05-08 23:02 | 58.14831 | 8.01157 | 1536 ft | 120 kts | 37° |
| 2026-05-08 23:02 | 58.15500 | 8.02040 | 1355 ft | 114 kts | 37° |
| 2026-05-08 23:02 | 58.16132 | 8.02879 | 1153 ft | 111 kts | 37° |
| 2026-05-08 23:02 | 58.16752 | 8.03703 | 940 ft | 107 kts | 36° |
| 2026-05-08 23:03 | 58.17355 | 8.04504 | 737 ft | 105 kts | 34° |
| 2026-05-08 23:03 | 58.17958 | 8.05266 | 555 ft | 103 kts | 35° |
| 2026-05-08 23:03 | 58.18532 | 8.06036 | 421 ft | 99 kts | 36° |
| 2026-05-08 23:03 | 58.19081 | 8.06754 | 266 ft | 94 kts | 34° |
| 2026-05-08 23:04 | 58.19605 | 8.07451 | 116 ft | 91 kts | 36° |
| 2026-05-08 23:04 | 58.20086 | 8.08101 | 55 ft | 76 kts | 36° |
| 2026-05-08 23:04 | 58.20349 | 8.08435 | 58 ft | 13 kts | 16° |
| 2026-05-08 23:04 | 58.20432 | 8.08387 | 62 ft | 10 kts | 299° |
| 2026-05-08 23:05 | 58.20443 | 8.08349 | 61 ft | 0 kts | 301° |
| 2026-05-08 23:05 | 58.20446 | 8.08341 | 59 ft | 6 kts | 302° |
| 2026-05-08 23:05 | 58.20480 | 8.08205 | 57 ft | 16 kts | 267° |
| 2026-05-08 23:05 | 58.20410 | 8.08003 | 61 ft | 21 kts | 233° |
| 2026-05-08 23:06 | 58.20318 | 8.07780 | 61 ft | 16 kts | 232° |
| 2026-05-08 23:06 | 58.20223 | 8.07645 | 61 ft | 18 kts | 209° |
| 2026-05-08 23:06 | 58.20128 | 8.07533 | 57 ft | 14 kts | 210° |
| 2026-05-08 23:06 | 58.20063 | 8.07455 | 59 ft | 11 kts | 213° |
| 2026-05-08 23:07 | 58.20033 | 8.07359 | 60 ft | 8 kts | 257° |
| 2026-05-08 23:07 | 58.20013 | 8.07310 | 61 ft | 0 kts | 292° |